createdAt,value
2023-04-26T00:27:26.734Z,89.82
2023-04-26T00:57:27.223Z,91.3
2023-04-26T01:27:26.876Z,89.73
2023-04-26T01:57:26.686Z,91.37
2023-04-26T02:27:26.993Z,91.95
2023-04-26T02:57:26.798Z,93.31
2023-04-26T03:27:26.738Z,94.45
2023-04-26T03:57:26.875Z,93.83
2023-04-26T04:27:26.485Z,93.02
2023-04-26T04:57:26.673Z,95.3
2023-04-26T05:27:26.816Z,96.69
2023-04-26T05:57:26.821Z,96.42
2023-04-26T06:27:26.561Z,93.05
2023-04-26T06:57:26.878Z,84.11
2023-04-26T07:27:26.451Z,70.62
2023-04-26T08:27:26.838Z,65.29
2023-04-26T08:57:26.173Z,48.06
2023-04-26T09:27:26.641Z,42.24
2023-04-26T09:57:26.514Z,43.39
2023-04-26T10:27:25.860Z,40.76
2023-04-26T10:57:26.321Z,44.22
2023-04-26T11:27:26.398Z,38.34
2023-04-26T11:57:26.153Z,38.09
2023-04-26T12:27:25.993Z,36.99
2023-04-26T12:57:26.202Z,38.11
2023-04-26T13:27:25.871Z,34.55
2023-04-26T13:57:26.035Z,35.91
2023-04-26T14:27:25.891Z,37.98
2023-04-26T14:57:25.630Z,33.5
2023-04-26T15:27:25.986Z,31.17
2023-04-26T15:57:25.717Z,33.21
2023-04-26T16:27:25.455Z,32.66
2023-04-26T16:57:25.383Z,33.21
2023-04-26T17:27:25.907Z,35.57
2023-04-26T17:57:25.428Z,44.28
2023-04-26T18:27:26.539Z,49.29
2023-04-26T18:57:25.375Z,54.13
2023-04-26T19:27:25.292Z,56.53
2023-04-26T19:57:25.320Z,57.45
2023-04-26T20:27:25.837Z,65.43
2023-04-26T21:27:25.295Z,61.57
2023-04-26T21:57:24.978Z,69.19
2023-04-26T22:27:25.052Z,68.95
2023-04-26T22:57:24.929Z,71.39
2023-04-26T23:27:25.178Z,74.29
2023-04-26T23:57:24.751Z,77.76
